Time;durP1;ratioP1;P1;durP2;ratioP2;P2;SDS_P1;SDS_P2;PMS_P1;PMS_P2;Temp;Humidity;BMP_temperature;BMP_pressure;BME280_temperature;BME280_humidity;BME280_pressure;Samples;Min_cycle;Max_cycle;Signal;HPM_P1;HPM_P2
2020/12/15 00:02:09;;;;;;;2.30;2.00;;;11.60;81.10;;;;;;4990851;28;20100;-76
2020/12/15 00:04:35;;;;;;;3.00;2.00;;;11.60;81.10;;;;;;4990807;28;20038;-79
2020/12/15 00:07:02;;;;;;;2.90;2.10;;;11.60;81.10;;;;;;4975162;28;20042;-76
2020/12/15 00:09:28;;;;;;;3.38;2.22;;;11.60;81.20;;;;;;4991971;28;20490;-75
2020/12/15 00:11:53;;;;;;;4.05;2.60;;;11.50;81.10;;;;;;4990870;28;20038;-75
2020/12/15 00:14:19;;;;;;;3.85;2.33;;;11.60;81.10;;;;;;4990760;28;20042;-75
2020/12/15 00:16:45;;;;;;;3.22;2.10;;;11.60;81.10;;;;;;5007849;28;20027;-75
2020/12/15 00:19:11;;;;;;;3.25;2.08;;;11.50;81.10;;;;;;4972087;28;20041;-75
2020/12/15 00:21:41;;;;;;;2.63;2.00;;;11.50;81.10;;;;;;4974229;28;20121;-78
2020/12/15 00:24:07;;;;;;;3.50;2.28;;;11.50;81.10;;;;;;4990895;28;20042;-75
2020/12/15 00:26:33;;;;;;;3.30;1.92;;;11.50;81.10;;;;;;4990138;28;20805;-75
2020/12/15 00:28:58;;;;;;;2.92;2.35;;;11.50;81.10;;;;;;4989757;28;20054;-75
2020/12/15 00:31:24;;;;;;;3.83;2.38;;;11.50;81.10;;;;;;4974482;28;20066;-75
2020/12/15 00:33:50;;;;;;;2.95;2.15;;;11.50;81.10;;;;;;4973959;28;20034;-75
2020/12/15 00:36:19;;;;;;;3.80;2.50;;;11.50;81.10;;;;;;4990806;28;20510;-75
2020/12/15 00:38:45;;;;;;;3.45;2.28;;;11.50;81.10;;;;;;4974392;28;20079;-75
2020/12/15 00:41:11;;;;;;;3.08;1.95;;;11.50;81.10;;;;;;4975240;28;20031;-75
2020/12/15 00:43:37;;;;;;;3.60;2.28;;;11.40;81.00;;;;;;4989998;28;20494;-75
2020/12/15 00:46:03;;;;;;;2.88;2.00;;;11.50;81.10;;;;;;4993831;28;20035;-75
2020/12/15 00:48:29;;;;;;;3.40;2.28;;;11.50;81.10;;;;;;4993838;28;20057;-75
2020/12/15 00:50:54;;;;;;;3.28;2.30;;;11.50;81.10;;;;;;4994640;28;20026;-75
2020/12/15 00:53:20;;;;;;;2.63;1.95;;;11.50;81.10;;;;;;5010682;28;20470;-75
2020/12/15 00:55:46;;;;;;;3.00;2.00;;;11.50;81.10;;;;;;4961276;28;20033;-75
2020/12/15 00:58:12;;;;;;;2.70;1.95;;;11.40;81.00;;;;;;4994057;28;20076;-75
2020/12/15 01:00:38;;;;;;;3.33;2.22;;;11.40;81.00;;;;;;4977722;28;20030;-75
2020/12/15 01:03:04;;;;;;;3.10;2.03;;;11.40;81.00;;;;;;4993590;28;20513;-75
2020/12/15 01:05:29;;;;;;;2.33;2.00;;;11.40;81.00;;;;;;4994108;28;20351;-76
2020/12/15 01:07:56;;;;;;;3.13;2.08;;;11.40;81.00;;;;;;5009875;28;20030;-76
2020/12/15 01:10:22;;;;;;;3.30;2.35;;;11.40;81.00;;;;;;4994326;28;20040;-75
2020/12/15 01:12:49;;;;;;;3.40;2.00;;;11.40;81.10;;;;;;4993422;28;20035;-75
2020/12/15 01:15:15;;;;;;;2.40;1.92;;;11.40;81.10;;;;;;4993871;28;20499;-75
2020/12/15 01:17:43;;;;;;;3.55;2.40;;;11.30;81.00;;;;;;4976909;28;20045;-78
2020/12/15 01:20:10;;;;;;;2.88;2.13;;;11.30;81.00;;;;;;4993794;28;20026;-76
2020/12/15 01:22:37;;;;;;;2.95;2.00;;;11.40;81.10;;;;;;4993725;28;20042;-76
2020/12/15 01:25:08;;;;;;;3.03;2.00;;;11.30;81.00;;;;;;4994456;28;20035;-77
2020/12/15 01:27:39;;;;;;;2.70;2.28;;;11.30;81.00;;;;;;4969807;28;20073;-75
2020/12/15 01:30:13;;;;;;;3.45;2.20;;;11.30;81.00;;;;;;5008149;28;20039;-75
2020/12/15 01:32:58;;;;;;;2.80;1.80;;;11.30;81.00;;;;;;4993578;28;20518;-75
2020/12/15 01:35:47;;;;;;;2.22;1.80;;;11.30;81.00;;;;;;4980174;28;20380;-78
2020/12/15 01:38:18;;;;;;;2.42;1.88;;;11.30;81.00;;;;;;4962170;28;20402;-75
2020/12/15 01:40:48;;;;;;;2.85;2.00;;;11.40;81.10;;;;;;4993362;28;20030;-79
2020/12/15 01:43:14;;;;;;;3.65;2.20;;;11.30;81.10;;;;;;4993401;28;20546;-75
2020/12/15 01:45:40;;;;;;;2.72;2.10;;;11.30;81.00;;;;;;4993262;28;20025;-75
2020/12/15 01:48:06;;;;;;;2.35;1.67;;;11.30;81.10;;;;;;4977140;28;20042;-75
2020/12/15 01:50:42;;;;;;;2.65;2.03;;;11.30;81.10;;;;;;4978336;28;20061;-75
2020/12/15 01:53:12;;;;;;;2.58;1.90;;;11.30;81.00;;;;;;4985987;28;20065;-75
2020/12/15 01:55:39;;;;;;;2.60;2.00;;;11.30;81.10;;;;;;4990922;28;20031;-75
2020/12/15 01:58:10;;;;;;;2.85;2.25;;;11.20;81.00;;;;;;4976303;28;20057;-79
2020/12/15 02:00:42;;;;;;;2.53;1.90;;;11.20;81.00;;;;;;4992676;28;20034;-76
2020/12/15 02:03:19;;;;;;;2.17;1.88;;;11.20;81.00;;;;;;4977868;28;20042;-77
2020/12/15 02:06:05;;;;;;;2.67;1.90;;;11.30;81.00;;;;;;4982282;28;20038;-75
2020/12/15 02:08:44;;;;;;;3.75;2.30;;;11.30;81.00;;;;;;4977523;28;20045;-75
2020/12/15 02:11:10;;;;;;;2.58;1.90;;;11.20;81.00;;;;;;4976525;28;20032;-75
2020/12/15 02:13:37;;;;;;;2.72;2.10;;;11.20;81.00;;;;;;4992124;28;20030;-75
2020/12/15 02:16:10;;;;;;;2.88;2.03;;;11.20;81.00;;;;;;4989180;28;20035;-75
2020/12/15 02:18:38;;;;;;;3.10;2.03;;;11.20;81.00;;;;;;4995518;28;20034;-75
2020/12/15 02:21:07;;;;;;;2.75;2.00;;;11.20;81.00;;;;;;5008004;28;20019;-74
2020/12/15 02:24:05;;;;;;;2.63;2.08;;;11.20;81.00;;;;;;4986822;28;20038;-75
2020/12/15 02:26:46;;;;;;;3.67;2.05;;;11.20;81.00;;;;;;4975486;28;20491;-75
2020/12/15 02:29:15;;;;;;;3.00;1.92;;;11.20;81.00;;;;;;4991050;28;20050;-75
2020/12/15 02:31:42;;;;;;;3.13;2.25;;;11.20;81.00;;;;;;4991826;28;20474;-75
2020/12/15 02:34:08;;;;;;;3.28;2.10;;;11.20;81.00;;;;;;4991219;28;20034;-75
2020/12/15 02:36:34;;;;;;;2.20;1.70;;;11.20;81.00;;;;;;5007881;28;20471;-75
2020/12/15 02:39:20;;;;;;;2.88;2.08;;;11.20;81.10;;;;;;4990781;28;20399;-75
2020/12/15 02:41:59;;;;;;;2.63;1.90;;;11.20;81.00;;;;;;4991971;28;20080;-75
2020/12/15 02:44:24;;;;;;;2.83;1.92;;;11.20;81.00;;;;;;4991240;28;20113;-75
2020/12/15 02:47:02;;;;;;;2.65;2.10;;;11.20;81.00;;;;;;4976707;28;20034;-74
2020/12/15 02:49:29;;;;;;;2.60;1.90;;;11.20;81.10;;;;;;5007275;28;20536;-75
2020/12/15 02:51:57;;;;;;;2.97;2.00;;;11.20;81.10;;;;;;4975681;28;20030;-75
2020/12/15 02:54:38;;;;;;;2.35;1.77;;;11.10;81.00;;;;;;4991246;28;20039;-75
2020/12/15 02:57:04;;;;;;;2.75;2.00;;;11.20;81.10;;;;;;4976201;28;20035;-76
2020/12/15 02:59:30;;;;;;;2.47;1.90;;;11.10;81.00;;;;;;4991119;28;20109;-75
2020/12/15 03:01:57;;;;;;;2.75;2.00;;;11.10;81.10;;;;;;4958570;28;20069;-75
2020/12/15 03:04:25;;;;;;;2.22;1.85;;;11.10;81.10;;;;;;4975033;28;20403;-75
2020/12/15 03:06:51;;;;;;;2.70;2.00;;;11.10;81.10;;;;;;5007043;28;20505;-75
2020/12/15 03:09:39;;;;;;;2.95;2.10;;;11.10;81.10;;;;;;4977745;28;20034;-74
2020/12/15 03:12:05;;;;;;;2.78;2.00;;;11.10;81.10;;;;;;4991145;28;20396;-75
2020/12/15 03:14:36;;;;;;;2.95;2.00;;;11.10;81.10;;;;;;4976609;28;20049;-75
2020/12/15 03:17:06;;;;;;;2.33;1.92;;;11.10;81.10;;;;;;5003722;28;20435;-75
2020/12/15 03:19:32;;;;;;;2.90;1.90;;;11.10;81.10;;;;;;4990942;28;20117;-75
2020/12/15 03:21:59;;;;;;;2.10;1.80;;;11.10;81.10;;;;;;4990577;28;20117;-75
2020/12/15 03:24:26;;;;;;;2.58;1.90;;;11.10;81.10;;;;;;4959487;28;20038;-76
2020/12/15 03:26:52;;;;;;;2.15;1.77;;;11.10;81.20;;;;;;4990198;28;20041;-75
2020/12/15 03:29:20;;;;;;;2.58;2.08;;;11.10;81.20;;;;;;4991151;28;20490;-75
2020/12/15 03:31:46;;;;;;;2.65;2.00;;;11.10;81.20;;;;;;4991641;28;20062;-75
2020/12/15 03:34:19;;;;;;;3.10;1.95;;;11.10;81.20;;;;;;4976244;28;20038;-75
2020/12/15 03:36:45;;;;;;;2.53;2.10;;;11.10;81.20;;;;;;4975485;28;20411;-75
2020/12/15 03:39:12;;;;;;;2.65;1.90;;;11.10;81.20;;;;;;4958254;28;20038;-75
2020/12/15 03:41:38;;;;;;;2.08;1.70;;;11.10;81.20;;;;;;4974895;28;20038;-75
2020/12/15 03:44:24;;;;;;;2.55;1.90;;;11.10;81.20;;;;;;4988442;28;20137;-75
2020/12/15 03:47:06;;;;;;;2.78;1.83;;;11.10;81.20;;;;;;4990629;28;20039;-75
2020/12/15 03:49:32;;;;;;;2.65;1.83;;;11.10;81.20;;;;;;4958194;28;20042;-75
2020/12/15 03:51:58;;;;;;;2.67;2.00;;;11.10;81.20;;;;;;4973652;28;20367;-75
2020/12/15 03:54:44;;;;;;;2.63;2.00;;;11.10;81.20;;;;;;4963298;28;20405;-76
2020/12/15 03:57:28;;;;;;;2.37;1.87;;;11.10;81.20;;;;;;4977798;28;20041;-75
2020/12/15 04:00:20;;;;;;;2.85;1.83;;;11.10;81.20;;;;;;4988809;28;20039;-78
2020/12/15 04:02:55;;;;;;;2.53;1.90;;;11.10;81.20;;;;;;5007531;28;20034;-75
2020/12/15 04:05:38;;;;;;;1.88;1.70;;;11.10;81.20;;;;;;4977158;28;20042;-75
2020/12/15 04:08:05;;;;;;;1.95;1.65;;;11.10;81.20;;;;;;4990616;28;20032;-75
2020/12/15 04:10:31;;;;;;;2.03;1.60;;;11.10;81.90;;;;;;4975472;28;20183;-75
2020/12/15 04:12:58;;;;;;;2.55;1.92;;;11.10;81.20;;;;;;4991192;28;20046;-78
2020/12/15 04:15:30;;;;;;;3.42;1.95;;;11.10;81.30;;;;;;4991800;28;20042;-74
2020/12/15 04:17:59;;;;;;;2.08;1.70;;;11.10;81.30;;;;;;4959072;28;20073;-80
2020/12/15 04:20:25;;;;;;;2.38;1.90;;;11.10;81.30;;;;;;4976485;28;20389;-75
2020/12/15 04:22:51;;;;;;;2.10;1.70;;;11.10;81.30;;;;;;4994245;28;20482;-75
2020/12/15 04:25:21;;;;;;;2.80;1.90;;;11.10;81.90;;;;;;4978132;28;20521;-75
2020/12/15 04:27:47;;;;;;;3.78;1.83;;;11.10;81.30;;;;;;4994630;28;20047;-75
2020/12/15 04:30:14;;;;;;;2.30;1.75;;;11.10;81.30;;;;;;5011040;28;20538;-75
2020/12/15 04:32:40;;;;;;;2.47;1.80;;;11.10;81.30;;;;;;4994155;28;20113;-75
2020/12/15 04:35:12;;;;;;;1.77;1.65;;;11.10;81.30;;;;;;4995068;28;20041;-75
2020/12/15 04:37:41;;;;;;;2.60;1.90;;;11.10;81.30;;;;;;4994862;28;20394;-76
2020/12/15 04:40:11;;;;;;;3.08;1.80;;;11.10;81.30;;;;;;4991332;28;20102;-77
2020/12/15 04:42:42;;;;;;;1.70;1.58;;;11.10;81.30;;;;;;4998311;28;20056;-75
2020/12/15 04:45:08;;;;;;;2.10;1.70;;;11.10;81.30;;;;;;4978454;28;20039;-75
2020/12/15 04:47:44;;;;;;;4.00;1.63;;;11.10;81.30;;;;;;4974996;28;20043;-75
2020/12/15 04:50:15;;;;;;;2.42;1.95;;;11.10;81.30;;;;;;4966840;28;20034;-76
2020/12/15 04:52:56;;;;;;;2.00;1.67;;;11.10;81.30;;;;;;4990963;28;20049;-75
2020/12/15 04:55:49;;;;;;;1.85;1.67;;;11.10;81.30;;;;;;4978883;28;20390;-75
2020/12/15 04:58:21;;;;;;;2.07;1.70;;;11.10;81.30;;;;;;4993724;28;20019;-75
2020/12/15 05:00:49;;;;;;;2.20;1.77;;;11.10;81.30;;;;;;4989530;28;20123;-75
2020/12/15 05:03:38;;;;;;;2.70;1.65;;;11.10;81.30;;;;;;4988323;28;20402;-75
2020/12/15 05:06:15;;;;;;;1.73;1.60;;;11.10;81.30;;;;;;4993694;28;20063;-76
2020/12/15 05:08:46;;;;;;;2.20;1.75;;;11.10;81.30;;;;;;4995348;28;20026;-75
2020/12/15 05:11:12;;;;;;;3.25;1.80;;;11.10;81.30;;;;;;4993642;28;20487;-76
2020/12/15 05:13:51;;;;;;;2.03;1.70;;;11.10;81.20;;;;;;4965236;28;20170;-75
2020/12/15 05:16:17;;;;;;;2.63;1.90;;;11.10;81.30;;;;;;4993608;28;20053;-76
2020/12/15 05:18:50;;;;;;;3.20;1.80;;;11.10;81.30;;;;;;4962093;28;20029;-75
2020/12/15 05:21:26;;;;;;;2.50;1.90;;;11.10;81.20;;;;;;4994781;28;20443;-75
2020/12/15 05:23:58;;;;;;;2.05;1.75;;;11.10;81.20;;;;;;4978673;28;20046;-75
2020/12/15 05:26:34;;;;;;;2.35;1.90;;;11.10;81.30;;;;;;4989295;28;20058;-75
2020/12/15 05:29:08;;;;;;;2.47;1.92;;;11.10;81.20;;;;;;4982757;28;20513;-77
2020/12/15 05:31:43;;;;;;;2.65;1.88;;;11.10;81.20;;;;;;4987824;28;20035;-76
2020/12/15 05:34:37;;;;;;;2.35;1.70;;;11.10;81.20;;;;;;4965554;28;20034;-75
2020/12/15 05:37:28;;;;;;;2.72;1.75;;;11.10;81.20;;;;;;4990948;28;20226;-75
2020/12/15 05:40:24;;;;;;;1.55;1.45;;;11.10;81.20;;;;;;4984510;28;20066;-75
2020/12/15 05:43:12;;;;;;;1.83;1.50;;;11.10;81.20;;;;;;4980857;28;20092;-75
2020/12/15 05:45:38;;;;;;;2.22;1.88;;;11.10;81.20;;;;;;4975905;28;20027;-75
2020/12/15 05:48:08;;;;;;;2.10;1.75;;;11.10;81.20;;;;;;5008323;28;20034;-75
2020/12/15 05:50:36;;;;;;;2.60;1.88;;;11.10;81.30;;;;;;5009313;28;20491;-76
2020/12/15 05:53:07;;;;;;;2.17;1.90;;;11.10;81.30;;;;;;4976039;28;20034;-76
2020/12/15 05:55:33;;;;;;;2.20;1.77;;;11.10;81.30;;;;;;4993081;28;20041;-75
2020/12/15 05:58:00;;;;;;;2.17;1.77;;;11.10;81.30;;;;;;4975311;28;20105;-75
2020/12/15 06:00:28;;;;;;;2.50;1.85;;;11.10;81.30;;;;;;5008517;28;20117;-74
2020/12/15 06:03:06;;;;;;;2.10;1.80;;;11.10;81.20;;;;;;4976753;28;20049;-75
2020/12/15 06:05:38;;;;;;;1.90;1.60;;;11.10;81.30;;;;;;4993503;28;20122;-75
2020/12/15 06:08:05;;;;;;;2.58;1.95;;;11.00;81.20;;;;;;4992764;28;20533;-75
2020/12/15 06:10:33;;;;;;;2.75;2.00;;;11.00;81.20;;;;;;4993600;28;20072;-75
2020/12/15 06:13:00;;;;;;;2.83;1.70;;;11.00;81.20;;;;;;4993947;28;20114;-76
2020/12/15 06:15:28;;;;;;;1.73;1.52;;;11.00;81.20;;;;;;4976512;28;20070;-75
2020/12/15 06:18:00;;;;;;;2.40;1.73;;;11.10;81.30;;;;;;4993702;28;20081;-75
2020/12/15 06:20:34;;;;;;;2.55;1.75;;;11.00;81.20;;;;;;4989840;28;20375;-75
2020/12/15 06:23:00;;;;;;;2.50;1.90;;;11.10;81.30;;;;;;4993368;28;20137;-75
2020/12/15 06:25:30;;;;;;;2.22;1.77;;;11.10;81.20;;;;;;4993947;28;20062;-75
2020/12/15 06:28:14;;;;;;;2.63;2.00;;;11.00;81.20;;;;;;4992502;28;20052;-75
2020/12/15 06:30:42;;;;;;;2.45;1.65;;;11.10;81.30;;;;;;5008405;28;20441;-75
2020/12/15 06:33:13;;;;;;;2.13;1.50;;;11.00;81.20;;;;;;4991670;28;20031;-75
2020/12/15 06:35:40;;;;;;;2.58;1.98;;;11.00;81.20;;;;;;4992196;28;20030;-75
2020/12/15 06:38:20;;;;;;;2.28;1.70;;;11.00;81.20;;;;;;4975795;28;20026;-75
2020/12/15 06:40:48;;;;;;;2.90;1.90;;;11.00;81.20;;;;;;4993369;28;20026;-75
2020/12/15 06:43:30;;;;;;;2.47;1.70;;;11.00;81.20;;;;;;4991487;28;20034;-85
2020/12/15 06:46:06;;;;;;;2.45;1.80;;;11.00;81.20;;;;;;4989418;28;20023;-78
2020/12/15 06:48:34;;;;;;;2.05;1.60;;;11.00;81.20;;;;;;4988984;28;20041;-77
2020/12/15 06:51:00;;;;;;;2.58;1.80;;;11.00;81.20;;;;;;4975985;28;20367;-76
2020/12/15 06:53:26;;;;;;;2.60;1.77;;;11.10;81.20;;;;;;5008088;28;20041;-77
2020/12/15 06:55:59;;;;;;;2.20;1.77;;;11.00;81.20;;;;;;4991038;28;20072;-79
2020/12/15 06:58:25;;;;;;;2.40;1.80;;;11.00;81.20;;;;;;4989975;28;20391;-77
2020/12/15 07:00:51;;;;;;;3.10;1.80;;;11.00;81.20;;;;;;4970764;28;20026;-77
2020/12/15 07:03:32;;;;;;;2.55;2.00;;;11.00;81.20;;;;;;4968063;28;20022;-77
2020/12/15 07:06:12;;;;;;;2.35;1.73;;;11.00;81.20;;;;;;4991014;28;20041;-76
2020/12/15 07:08:38;;;;;;;2.30;1.77;;;11.00;81.20;;;;;;5005371;28;20038;-77
2020/12/15 07:11:04;;;;;;;3.22;2.10;;;11.00;81.20;;;;;;4990224;28;20034;-77
2020/12/15 07:13:30;;;;;;;2.97;1.75;;;11.00;81.20;;;;;;5004956;28;20045;-76
2020/12/15 07:15:55;;;;;;;3.08;2.00;;;11.00;81.20;;;;;;4970398;28;20419;-77
2020/12/15 07:18:21;;;;;;;2.75;2.00;;;11.00;81.20;;;;;;4974066;28;20030;-77
2020/12/15 07:20:48;;;;;;;2.58;1.92;;;11.00;81.20;;;;;;4990546;28;20038;-76
2020/12/15 07:23:16;;;;;;;2.50;2.00;;;11.00;81.20;;;;;;4990139;28;20475;-77
2020/12/15 07:25:42;;;;;;;2.25;1.70;;;11.00;81.20;;;;;;4987306;28;20412;-76
2020/12/15 07:28:08;;;;;;;2.15;1.73;;;11.00;81.20;;;;;;4973888;28;20047;-76
2020/12/15 07:30:39;;;;;;;2.92;1.90;;;11.00;81.20;;;;;;4973779;28;20141;-77
2020/12/15 07:33:05;;;;;;;3.60;2.00;;;11.00;81.20;;;;;;4973209;28;20042;-77
2020/12/15 07:35:32;;;;;;;2.13;1.75;;;11.00;81.20;;;;;;4969123;28;20422;-79
2020/12/15 07:37:58;;;;;;;2.13;1.65;;;11.00;81.20;;;;;;4972931;28;20038;-77
2020/12/15 07:40:29;;;;;;;2.42;1.83;;;11.00;81.20;;;;;;4974872;28;20386;-76
2020/12/15 07:42:57;;;;;;;2.80;1.98;;;11.00;81.20;;;;;;5002056;28;20506;-77
2020/12/15 07:45:24;;;;;;;2.95;2.13;;;11.00;81.20;;;;;;4974242;28;20471;-78
2020/12/15 07:47:51;;;;;;;3.15;1.90;;;11.00;81.20;;;;;;5007175;28;20029;-76
2020/12/15 07:50:17;;;;;;;2.13;1.60;;;11.00;81.20;;;;;;4989941;28;20073;-79
2020/12/15 07:52:42;;;;;;;2.42;1.90;;;11.00;81.20;;;;;;4991226;28;20121;-77
2020/12/15 07:55:13;;;;;;;2.30;1.88;;;11.00;81.20;;;;;;5008232;28;20041;-77
2020/12/15 07:57:41;;;;;;;2.42;1.80;;;11.00;81.20;;;;;;4994020;28;20506;-76
2020/12/15 08:00:11;;;;;;;2.83;2.08;;;11.00;81.20;;;;;;4994481;28;20036;-76
2020/12/15 08:02:41;;;;;;;2.38;1.85;;;11.00;81.20;;;;;;5010672;28;20038;-77
2020/12/15 08:05:12;;;;;;;2.80;2.00;;;11.00;81.20;;;;;;4994493;28;20057;-76
2020/12/15 08:07:52;;;;;;;2.78;1.92;;;11.00;81.20;;;;;;4978046;28;20399;-78
2020/12/15 08:10:29;;;;;;;2.38;2.00;;;11.00;81.30;;;;;;4994808;28;20026;-80
2020/12/15 08:12:58;;;;;;;2.33;2.00;;;11.00;81.20;;;;;;4978511;28;20096;-76
2020/12/15 08:15:24;;;;;;;2.05;1.67;;;11.00;81.20;;;;;;4962630;28;20057;-76
2020/12/15 08:17:51;;;;;;;2.55;2.03;;;11.00;81.20;;;;;;5010248;28;20072;-77
2020/12/15 08:20:22;;;;;;;2.03;1.83;;;11.00;81.20;;;;;;4978062;28;20384;-76
2020/12/15 08:23:01;;;;;;;2.88;2.08;;;11.00;81.20;;;;;;4994908;28;20030;-77
2020/12/15 08:25:28;;;;;;;2.40;1.92;;;11.00;81.20;;;;;;5010786;28;20390;-76
2020/12/15 08:27:54;;;;;;;2.45;2.03;;;11.00;81.20;;;;;;4993938;28;20057;-76
2020/12/15 08:30:21;;;;;;;2.92;2.00;;;11.00;81.20;;;;;;5010213;28;20038;-76
2020/12/15 08:32:49;;;;;;;2.55;1.95;;;11.00;81.30;;;;;;4977520;28;20034;-76
2020/12/15 08:35:22;;;;;;;2.78;1.98;;;11.00;81.20;;;;;;4995365;28;20073;-78
2020/12/15 08:37:53;;;;;;;2.38;1.98;;;11.00;81.30;;;;;;5010641;28;20121;-78
2020/12/15 08:40:19;;;;;;;2.80;2.05;;;11.00;81.30;;;;;;4994143;28;20291;-77
2020/12/15 08:42:47;;;;;;;2.63;2.10;;;11.00;81.20;;;;;;4961087;28;20030;-77
2020/12/15 08:45:15;;;;;;;2.75;1.90;;;11.00;81.20;;;;;;4991192;28;20113;-79
2020/12/15 08:47:46;;;;;;;2.58;2.05;;;11.00;81.30;;;;;;4980147;28;20515;-77
2020/12/15 08:50:16;;;;;;;2.88;2.10;;;11.00;81.30;;;;;;5018626;28;20039;-76
2020/12/15 08:52:43;;;;;;;2.25;2.00;;;11.00;81.30;;;;;;4996366;28;20041;-77
2020/12/15 08:55:09;;;;;;;3.10;2.10;;;11.00;81.30;;;;;;5011353;28;20405;-76
2020/12/15 08:57:35;;;;;;;2.78;2.10;;;11.00;81.30;;;;;;4978286;28;20030;-76
2020/12/15 09:00:12;;;;;;;2.80;2.20;;;11.00;81.30;;;;;;5010759;28;20066;-77
2020/12/15 09:02:37;;;;;;;3.05;2.10;;;11.00;81.40;;;;;;4993716;28;20034;-77
2020/12/15 09:05:08;;;;;;;3.10;2.20;;;11.00;81.30;;;;;;4977451;28;20442;-76
2020/12/15 09:07:36;;;;;;;2.60;2.08;;;11.00;81.30;;;;;;5009900;28;20068;-77
2020/12/15 09:10:29;;;;;;;3.33;2.10;;;11.10;81.30;;;;;;4993744;28;20090;-76
2020/12/15 09:12:55;;;;;;;3.10;2.50;;;11.00;81.40;;;;;;4992663;28;20410;-77
2020/12/15 09:15:20;;;;;;;3.55;2.40;;;11.00;81.90;;;;;;4993691;28;20121;-77
2020/12/15 09:17:47;;;;;;;2.92;2.00;;;11.00;81.30;;;;;;4977381;28;20026;-76
2020/12/15 09:20:26;;;;;;;2.92;2.17;;;11.00;81.30;;;;;;4977310;28;20030;-76
2020/12/15 09:22:52;;;;;;;3.75;2.50;;;11.00;81.40;;;;;;4994160;28;20125;-77
2020/12/15 09:25:19;;;;;;;3.53;2.38;;;11.10;81.40;;;;;;4983113;28;20045;-77
2020/12/15 09:27:48;;;;;;;3.53;2.42;;;11.10;81.40;;;;;;4989834;28;20050;-77
2020/12/15 09:30:18;;;;;;;3.20;2.30;;;11.10;81.40;;;;;;5006482;28;20057;-77
2020/12/15 09:32:45;;;;;;;2.95;2.30;;;11.10;81.40;;;;;;4991580;28;20065;-77
2020/12/15 09:35:12;;;;;;;3.47;2.65;;;11.10;81.40;;;;;;4993877;28;20035;-76
2020/12/15 09:37:39;;;;;;;3.58;2.47;;;11.10;81.40;;;;;;5009116;28;20037;-76
2020/12/15 09:40:09;;;;;;;4.40;3.00;;;11.10;81.40;;;;;;4993590;28;20058;-76
2020/12/15 09:42:45;;;;;;;3.30;2.33;;;11.10;81.40;;;;;;4993653;28;20117;-77
2020/12/15 09:45:11;;;;;;;3.65;2.45;;;11.10;81.40;;;;;;4992409;28;20125;-76
2020/12/15 09:47:41;;;;;;;2.90;2.22;;;11.10;81.40;;;;;;4977028;28;20072;-76
2020/12/15 09:50:08;;;;;;;3.25;2.38;;;11.10;81.40;;;;;;4995182;28;20026;-76
2020/12/15 09:52:34;;;;;;;3.08;2.40;;;11.10;81.30;;;;;;4984903;28;20033;-76
2020/12/15 09:54:59;;;;;;;3.20;2.35;;;11.10;81.30;;;;;;4993445;28;20034;-77
2020/12/15 09:57:25;;;;;;;3.20;2.33;;;11.10;81.30;;;;;;4993076;28;20487;-76
2020/12/15 09:59:51;;;;;;;3.10;2.42;;;11.20;81.40;;;;;;4993221;28;20036;-76
2020/12/15 10:02:17;;;;;;;4.18;2.75;;;11.10;81.30;;;;;;4994219;28;20467;-76
2020/12/15 10:04:42;;;;;;;3.20;2.40;;;11.10;81.30;;;;;;5008378;28;20034;-76
2020/12/15 10:07:08;;;;;;;3.13;2.17;;;11.10;81.30;;;;;;4976537;28;20039;-76
2020/12/15 10:09:34;;;;;;;3.22;2.47;;;11.20;81.30;;;;;;4990874;28;20046;-77
2020/12/15 10:12:00;;;;;;;4.50;2.70;;;11.10;81.30;;;;;;4992897;28;20283;-75
2020/12/15 10:14:26;;;;;;;3.35;2.45;;;11.20;81.30;;;;;;4993311;28;20467;-75
2020/12/15 10:16:52;;;;;;;2.95;2.17;;;11.20;81.30;;;;;;4992373;28;20037;-75
2020/12/15 10:19:17;;;;;;;2.85;2.30;;;11.20;81.30;;;;;;4992770;28;20117;-75
2020/12/15 10:21:43;;;;;;;3.72;2.70;;;11.20;81.30;;;;;;4991699;28;20514;-75
2020/12/15 10:24:09;;;;;;;2.50;2.17;;;11.20;81.30;;;;;;4991800;28;20084;-75
2020/12/15 10:26:35;;;;;;;3.20;2.35;;;11.20;81.30;;;;;;4992259;28;20043;-74
2020/12/15 10:29:00;;;;;;;2.95;2.42;;;11.20;81.30;;;;;;4986125;28;20543;-74
2020/12/15 10:31:27;;;;;;;3.28;2.42;;;11.20;81.30;;;;;;4976957;28;20056;-75
2020/12/15 10:33:52;;;;;;;3.05;2.42;;;11.30;81.30;;;;;;4992618;28;20034;-74
2020/12/15 10:36:18;;;;;;;2.78;2.47;;;11.30;81.30;;;;;;4992412;28;20038;-78
2020/12/15 10:38:44;;;;;;;3.85;2.80;;;11.30;81.30;;;;;;4993129;28;20042;-76
2020/12/15 10:41:10;;;;;;;4.07;2.80;;;11.30;81.30;;;;;;4992504;28;20030;-77
2020/12/15 10:43:36;;;;;;;4.97;3.47;;;11.30;81.40;;;;;;4992799;28;20091;-77
2020/12/15 10:46:03;;;;;;;4.88;3.08;;;11.30;81.60;;;;;;4992443;28;20039;-75
2020/12/15 10:48:30;;;;;;;4.63;3.30;;;11.30;81.80;;;;;;4975914;28;20160;-76
2020/12/15 10:50:56;;;;;;;4.40;3.38;;;11.30;81.90;;;;;;5007120;28;20029;-75
2020/12/15 10:53:22;;;;;;;5.03;3.50;;;11.30;81.90;;;;;;4991433;28;20030;-75
2020/12/15 10:55:51;;;;;;;4.40;3.35;;;11.30;81.90;;;;;;4991184;28;20398;-75
2020/12/15 10:58:18;;;;;;;5.00;3.08;;;11.30;81.90;;;;;;5008409;28;20045;-76
2020/12/15 11:00:44;;;;;;;4.65;3.38;;;11.40;81.90;;;;;;4991052;28;20031;-75
2020/12/15 11:03:10;;;;;;;5.00;3.17;;;11.40;81.90;;;;;;4958705;28;20042;-75
2020/12/15 11:05:36;;;;;;;5.22;3.40;;;11.40;81.90;;;;;;4961261;28;20038;-75
2020/12/15 11:08:01;;;;;;;4.55;3.40;;;11.40;81.90;;;;;;4992376;28;20088;-75
2020/12/15 11:10:27;;;;;;;4.80;3.30;;;11.40;81.90;;;;;;4995601;28;20027;-75
2020/12/15 11:12:53;;;;;;;4.97;3.42;;;11.40;81.80;;;;;;5011689;28;20073;-76
2020/12/15 11:15:19;;;;;;;3.97;3.10;;;11.40;81.80;;;;;;4983972;28;20053;-75
2020/12/15 11:17:45;;;;;;;5.25;3.33;;;11.50;81.90;;;;;;4991124;28;20433;-75
2020/12/15 11:20:11;;;;;;;4.88;3.22;;;11.50;81.90;;;;;;4991274;28;20034;-75
2020/12/15 11:22:36;;;;;;;4.43;3.00;;;11.50;81.90;;;;;;4993173;28;20172;-74
2020/12/15 11:25:03;;;;;;;5.25;3.30;;;11.50;81.80;;;;;;4974430;28;20446;-75
2020/12/15 11:27:28;;;;;;;4.45;3.33;;;11.50;81.90;;;;;;5006341;28;20141;-74
2020/12/15 11:29:54;;;;;;;4.15;3.17;;;11.50;81.80;;;;;;4990349;28;20509;-75
2020/12/15 11:32:20;;;;;;;3.90;3.00;;;11.50;81.80;;;;;;4974909;28;20034;-76
2020/12/15 11:34:46;;;;;;;4.63;3.25;;;11.50;81.80;;;;;;4990871;28;20501;-76
2020/12/15 11:37:12;;;;;;;4.70;3.28;;;11.50;81.80;;;;;;4991256;28;20038;-75
2020/12/15 11:39:39;;;;;;;4.25;3.17;;;11.50;81.80;;;;;;4971139;28;20045;-75
2020/12/15 11:42:07;;;;;;;3.97;2.95;;;11.50;81.80;;;;;;4985773;28;20069;-76
2020/12/15 11:44:34;;;;;;;4.35;3.20;;;11.50;81.80;;;;;;4990543;28;20034;-76
2020/12/15 11:47:00;;;;;;;4.15;2.97;;;11.50;81.80;;;;;;4974364;28;20061;-75
2020/12/15 11:49:26;;;;;;;3.88;2.97;;;11.50;81.80;;;;;;4973575;28;20116;-74
2020/12/15 11:51:56;;;;;;;3.75;2.88;;;11.50;81.70;;;;;;4990133;28;20035;-74
2020/12/15 11:54:22;;;;;;;4.80;3.28;;;11.60;81.80;;;;;;5003149;28;20041;-75
2020/12/15 11:56:50;;;;;;;4.82;3.17;;;11.60;81.70;;;;;;4957769;28;20038;-75
2020/12/15 11:59:17;;;;;;;4.25;3.17;;;11.60;81.80;;;;;;5007662;28;20037;-75
2020/12/15 12:01:42;;;;;;;4.65;3.08;;;11.60;81.80;;;;;;4973853;28;20038;-76
2020/12/15 12:04:08;;;;;;;4.30;3.03;;;11.60;81.70;;;;;;4988574;28;20034;-75
2020/12/15 12:06:34;;;;;;;4.25;3.20;;;11.60;81.70;;;;;;4974134;28;20112;-74
2020/12/15 12:09:02;;;;;;;4.05;2.83;;;11.60;81.70;;;;;;4974416;28;20034;-75
2020/12/15 12:11:28;;;;;;;4.38;3.28;;;11.60;81.80;;;;;;4989569;28;20034;-76
2020/12/15 12:13:54;;;;;;;4.35;3.00;;;11.60;81.70;;;;;;4990625;28;20049;-74
2020/12/15 12:16:20;;;;;;;3.63;2.85;;;11.60;81.70;;;;;;4975507;28;20480;-74
2020/12/15 12:18:45;;;;;;;4.22;3.05;;;11.60;81.70;;;;;;4989357;28;20041;-76
2020/12/15 12:21:11;;;;;;;4.28;2.97;;;11.60;81.70;;;;;;4974847;28;20041;-75
2020/12/15 12:23:39;;;;;;;3.63;2.83;;;11.60;81.70;;;;;;4974390;28;20042;-75
2020/12/15 12:26:05;;;;;;;4.03;2.90;;;11.60;81.70;;;;;;4977184;28;20747;-75
2020/12/15 12:28:32;;;;;;;4.28;2.97;;;11.60;81.70;;;;;;4990226;28;20129;-76
2020/12/15 12:30:59;;;;;;;3.88;2.83;;;11.70;81.80;;;;;;4989917;28;20459;-77
2020/12/15 12:33:26;;;;;;;4.13;3.30;;;11.60;81.70;;;;;;4975476;28;20042;-76
2020/12/15 12:35:53;;;;;;;4.30;3.03;;;11.60;81.70;;;;;;4974172;28;20038;-77
2020/12/15 12:38:20;;;;;;;3.40;2.70;;;11.70;81.70;;;;;;4974912;28;20442;-75
2020/12/15 12:40:47;;;;;;;4.20;2.92;;;11.60;81.70;;;;;;4975312;28;20026;-76
2020/12/15 12:43:13;;;;;;;4.35;3.40;;;11.70;81.70;;;;;;4993731;28;20061;-77
2020/12/15 12:45:40;;;;;;;3.78;2.83;;;11.70;81.70;;;;;;4977749;28;20072;-77
2020/12/15 12:48:09;;;;;;;4.43;3.03;;;11.70;81.60;;;;;;4995568;28;20080;-77
2020/12/15 12:50:36;;;;;;;4.50;3.05;;;11.70;81.70;;;;;;4994626;28;20034;-76
2020/12/15 12:53:02;;;;;;;4.10;3.13;;;11.70;81.60;;;;;;4977883;28;20035;-77
2020/12/15 12:55:28;;;;;;;4.22;2.90;;;11.70;81.60;;;;;;4977917;28;20041;-77
2020/12/15 12:57:54;;;;;;;3.92;3.25;;;11.70;82.20;;;;;;4993570;28;20030;-77
2020/12/15 13:00:21;;;;;;;3.72;2.97;;;11.80;81.60;;;;;;4994261;28;20037;-79